sensor_id;sensor_type;location;lat;lon;timestamp;P1;durP1;ratioP1;P2;durP2;ratioP2
11100;SDS011;5604;50.722;7.078;2023-05-10T00:00:15;2.00;;;0.70;;
11100;SDS011;5604;50.722;7.078;2023-05-10T00:02:44;1.17;;;1.07;;
11100;SDS011;5604;50.722;7.078;2023-05-10T00:05:13;2.13;;;1.10;;
11100;SDS011;5604;50.722;7.078;2023-05-10T00:07:41;1.00;;;1.00;;
11100;SDS011;5604;50.722;7.078;2023-05-10T00:10:11;1.57;;;1.20;;
11100;SDS011;5604;50.722;7.078;2023-05-10T00:12:39;2.13;;;1.10;;
11100;SDS011;5604;50.722;7.078;2023-05-10T00:15:08;3.23;;;0.90;;
11100;SDS011;5604;50.722;7.078;2023-05-10T00:17:38;1.23;;;1.13;;
11100;SDS011;5604;50.722;7.078;2023-05-10T00:20:06;0.97;;;0.97;;
11100;SDS011;5604;50.722;7.078;2023-05-10T00:22:36;0.97;;;0.97;;
11100;SDS011;5604;50.722;7.078;2023-05-10T00:25:05;3.23;;;1.30;;
11100;SDS011;5604;50.722;7.078;2023-05-10T00:27:34;5.80;;;1.57;;
11100;SDS011;5604;50.722;7.078;2023-05-10T00:30:02;2.07;;;1.27;;
11100;SDS011;5604;50.722;7.078;2023-05-10T00:32:30;2.40;;;1.20;;
11100;SDS011;5604;50.722;7.078;2023-05-10T00:34:58;1.57;;;1.30;;
11100;SDS011;5604;50.722;7.078;2023-05-10T00:37:26;1.97;;;1.33;;
11100;SDS011;5604;50.722;7.078;2023-05-10T00:39:56;1.80;;;1.40;;
11100;SDS011;5604;50.722;7.078;2023-05-10T00:42:24;1.53;;;1.30;;
11100;SDS011;5604;50.722;7.078;2023-05-10T00:44:53;1.10;;;1.10;;
11100;SDS011;5604;50.722;7.078;2023-05-10T00:47:22;1.87;;;1.40;;
11100;SDS011;5604;50.722;7.078;2023-05-10T00:49:50;1.60;;;1.50;;
11100;SDS011;5604;50.722;7.078;2023-05-10T00:52:18;1.50;;;1.30;;
11100;SDS011;5604;50.722;7.078;2023-05-10T00:54:46;1.90;;;1.60;;
11100;SDS011;5604;50.722;7.078;2023-05-10T00:57:17;1.40;;;1.30;;
11100;SDS011;5604;50.722;7.078;2023-05-10T00:59:45;1.20;;;1.20;;
11100;SDS011;5604;50.722;7.078;2023-05-10T01:02:13;3.23;;;1.47;;
11100;SDS011;5604;50.722;7.078;2023-05-10T01:04:41;1.27;;;1.20;;
11100;SDS011;5604;50.722;7.078;2023-05-10T01:07:10;1.40;;;1.37;;
11100;SDS011;5604;50.722;7.078;2023-05-10T01:09:38;0.97;;;0.97;;
11100;SDS011;5604;50.722;7.078;2023-05-10T01:12:07;1.30;;;1.20;;
11100;SDS011;5604;50.722;7.078;2023-05-10T01:14:37;2.40;;;1.40;;
11100;SDS011;5604;50.722;7.078;2023-05-10T01:17:05;3.23;;;1.30;;
11100;SDS011;5604;50.722;7.078;2023-05-10T01:19:35;3.10;;;1.50;;
11100;SDS011;5604;50.722;7.078;2023-05-10T01:22:06;2.23;;;1.20;;
11100;SDS011;5604;50.722;7.078;2023-05-10T01:28:00;1.30;;;1.20;;
11100;SDS011;5604;50.722;7.078;2023-05-10T01:30:47;3.53;;;1.10;;
11100;SDS011;5604;50.722;7.078;2023-05-10T01:33:36;1.20;;;1.10;;
11100;SDS011;5604;50.722;7.078;2023-05-10T01:36:08;1.50;;;1.40;;
11100;SDS011;5604;50.722;7.078;2023-05-10T01:38:42;1.37;;;1.27;;
11100;SDS011;5604;50.722;7.078;2023-05-10T01:41:14;1.97;;;1.40;;
11100;SDS011;5604;50.722;7.078;2023-05-10T01:43:46;1.97;;;1.53;;
11100;SDS011;5604;50.722;7.078;2023-05-10T01:46:20;1.63;;;1.53;;
11100;SDS011;5604;50.722;7.078;2023-05-10T01:48:54;1.77;;;1.50;;
11100;SDS011;5604;50.722;7.078;2023-05-10T01:51:23;2.10;;;1.77;;
11100;SDS011;5604;50.722;7.078;2023-05-10T01:53:54;3.00;;;1.67;;
11100;SDS011;5604;50.722;7.078;2023-05-10T01:56:26;2.67;;;1.57;;
11100;SDS011;5604;50.722;7.078;2023-05-10T01:58:56;1.83;;;1.70;;
11100;SDS011;5604;50.722;7.078;2023-05-10T02:01:24;2.57;;;1.80;;
11100;SDS011;5604;50.722;7.078;2023-05-10T02:03:54;1.50;;;1.40;;
11100;SDS011;5604;50.722;7.078;2023-05-10T02:06:23;3.83;;;1.60;;
11100;SDS011;5604;50.722;7.078;2023-05-10T02:08:52;2.57;;;1.50;;
11100;SDS011;5604;50.722;7.078;2023-05-10T02:11:20;2.77;;;1.23;;
11100;SDS011;5604;50.722;7.078;2023-05-10T02:13:50;2.40;;;1.40;;
11100;SDS011;5604;50.722;7.078;2023-05-10T02:16:18;4.00;;;1.30;;
11100;SDS011;5604;50.722;7.078;2023-05-10T02:18:52;1.83;;;1.23;;
11100;SDS011;5604;50.722;7.078;2023-05-10T02:21:23;2.63;;;1.70;;
11100;SDS011;5604;50.722;7.078;2023-05-10T02:23:52;2.50;;;1.60;;
11100;SDS011;5604;50.722;7.078;2023-05-10T02:26:21;1.43;;;1.33;;
11100;SDS011;5604;50.722;7.078;2023-05-10T02:28:49;4.23;;;1.70;;
11100;SDS011;5604;50.722;7.078;2023-05-10T02:31:18;2.67;;;1.57;;
11100;SDS011;5604;50.722;7.078;2023-05-10T02:33:47;2.33;;;1.60;;
11100;SDS011;5604;50.722;7.078;2023-05-10T02:36:18;1.70;;;1.60;;
11100;SDS011;5604;50.722;7.078;2023-05-10T02:38:47;1.77;;;1.60;;
11100;SDS011;5604;50.722;7.078;2023-05-10T02:41:16;3.23;;;1.77;;
11100;SDS011;5604;50.722;7.078;2023-05-10T02:43:46;1.73;;;1.60;;
11100;SDS011;5604;50.722;7.078;2023-05-10T02:46:15;1.67;;;1.57;;
11100;SDS011;5604;50.722;7.078;2023-05-10T02:48:43;1.60;;;1.50;;
11100;SDS011;5604;50.722;7.078;2023-05-10T02:51:11;1.70;;;1.53;;
11100;SDS011;5604;50.722;7.078;2023-05-10T02:53:41;2.33;;;1.63;;
11100;SDS011;5604;50.722;7.078;2023-05-10T02:56:11;2.17;;;1.70;;
11100;SDS011;5604;50.722;7.078;2023-05-10T02:58:41;2.33;;;1.40;;
11100;SDS011;5604;50.722;7.078;2023-05-10T03:01:09;3.07;;;1.87;;
11100;SDS011;5604;50.722;7.078;2023-05-10T03:03:39;2.40;;;1.70;;
11100;SDS011;5604;50.722;7.078;2023-05-10T03:06:07;1.80;;;1.70;;
11100;SDS011;5604;50.722;7.078;2023-05-10T03:08:36;3.13;;;1.97;;
11100;SDS011;5604;50.722;7.078;2023-05-10T03:11:13;3.40;;;2.17;;
11100;SDS011;5604;50.722;7.078;2023-05-10T03:13:54;4.33;;;2.40;;
11100;SDS011;5604;50.722;7.078;2023-05-10T03:16:29;2.93;;;2.60;;
11100;SDS011;5604;50.722;7.078;2023-05-10T03:19:06;3.77;;;2.90;;
11100;SDS011;5604;50.722;7.078;2023-05-10T03:21:40;5.00;;;3.50;;
11100;SDS011;5604;50.722;7.078;2023-05-10T03:24:09;3.80;;;2.60;;
11100;SDS011;5604;50.722;7.078;2023-05-10T03:26:41;3.57;;;2.80;;
11100;SDS011;5604;50.722;7.078;2023-05-10T03:29:15;3.10;;;2.73;;
11100;SDS011;5604;50.722;7.078;2023-05-10T03:31:44;2.93;;;2.50;;
11100;SDS011;5604;50.722;7.078;2023-05-10T03:34:13;3.57;;;2.50;;
11100;SDS011;5604;50.722;7.078;2023-05-10T03:36:42;3.50;;;2.70;;
11100;SDS011;5604;50.722;7.078;2023-05-10T03:39:10;4.87;;;4.20;;
11100;SDS011;5604;50.722;7.078;2023-05-10T03:41:38;4.80;;;3.07;;
11100;SDS011;5604;50.722;7.078;2023-05-10T03:44:08;5.23;;;3.70;;
11100;SDS011;5604;50.722;7.078;2023-05-10T03:46:37;5.57;;;3.60;;
11100;SDS011;5604;50.722;7.078;2023-05-10T03:49:05;4.70;;;4.30;;
11100;SDS011;5604;50.722;7.078;2023-05-10T03:51:33;4.93;;;4.47;;
11100;SDS011;5604;50.722;7.078;2023-05-10T03:54:01;6.13;;;4.63;;
11100;SDS011;5604;50.722;7.078;2023-05-10T03:56:29;9.37;;;6.17;;
11100;SDS011;5604;50.722;7.078;2023-05-10T03:58:59;7.43;;;6.17;;
11100;SDS011;5604;50.722;7.078;2023-05-10T04:01:28;8.50;;;7.23;;
11100;SDS011;5604;50.722;7.078;2023-05-10T04:03:56;10.97;;;7.07;;
11100;SDS011;5604;50.722;7.078;2023-05-10T04:06:24;8.40;;;7.07;;
11100;SDS011;5604;50.722;7.078;2023-05-10T04:08:53;9.93;;;8.10;;
11100;SDS011;5604;50.722;7.078;2023-05-10T04:11:22;11.00;;;8.47;;
11100;SDS011;5604;50.722;7.078;2023-05-10T04:13:51;9.87;;;8.07;;
11100;SDS011;5604;50.722;7.078;2023-05-10T04:16:19;11.67;;;9.23;;
11100;SDS011;5604;50.722;7.078;2023-05-10T04:18:48;11.20;;;9.10;;
11100;SDS011;5604;50.722;7.078;2023-05-10T04:21:17;10.77;;;9.07;;
11100;SDS011;5604;50.722;7.078;2023-05-10T04:23:45;12.10;;;9.23;;
11100;SDS011;5604;50.722;7.078;2023-05-10T04:26:13;12.00;;;9.63;;
11100;SDS011;5604;50.722;7.078;2023-05-10T04:28:41;11.10;;;9.77;;
11100;SDS011;5604;50.722;7.078;2023-05-10T04:31:09;15.03;;;10.23;;
11100;SDS011;5604;50.722;7.078;2023-05-10T04:33:38;13.43;;;10.80;;
11100;SDS011;5604;50.722;7.078;2023-05-10T04:36:08;14.10;;;11.47;;
11100;SDS011;5604;50.722;7.078;2023-05-10T04:38:36;16.70;;;11.73;;
11100;SDS011;5604;50.722;7.078;2023-05-10T04:41:04;13.17;;;11.77;;
11100;SDS011;5604;50.722;7.078;2023-05-10T04:43:33;14.30;;;11.13;;
11100;SDS011;5604;50.722;7.078;2023-05-10T04:46:01;15.93;;;11.63;;
11100;SDS011;5604;50.722;7.078;2023-05-10T04:48:30;14.00;;;12.43;;
11100;SDS011;5604;50.722;7.078;2023-05-10T04:50:58;16.83;;;12.30;;
11100;SDS011;5604;50.722;7.078;2023-05-10T04:53:28;17.87;;;12.60;;
11100;SDS011;5604;50.722;7.078;2023-05-10T04:55:56;14.67;;;12.37;;
11100;SDS011;5604;50.722;7.078;2023-05-10T04:58:24;14.30;;;12.80;;
11100;SDS011;5604;50.722;7.078;2023-05-10T05:00:52;20.03;;;12.77;;
11100;SDS011;5604;50.722;7.078;2023-05-10T05:03:20;14.03;;;12.03;;
11100;SDS011;5604;50.722;7.078;2023-05-10T05:05:49;16.10;;;12.63;;
11100;SDS011;5604;50.722;7.078;2023-05-10T05:08:18;15.50;;;12.30;;
11100;SDS011;5604;50.722;7.078;2023-05-10T05:10:53;16.90;;;12.63;;
11100;SDS011;5604;50.722;7.078;2023-05-10T05:13:22;14.57;;;12.13;;
11100;SDS011;5604;50.722;7.078;2023-05-10T05:15:51;15.43;;;12.70;;
11100;SDS011;5604;50.722;7.078;2023-05-10T05:18:20;14.27;;;12.27;;
11100;SDS011;5604;50.722;7.078;2023-05-10T05:20:48;15.53;;;12.57;;
11100;SDS011;5604;50.722;7.078;2023-05-10T05:23:16;13.60;;;11.13;;
11100;SDS011;5604;50.722;7.078;2023-05-10T05:25:44;13.50;;;10.73;;
11100;SDS011;5604;50.722;7.078;2023-05-10T05:28:14;12.50;;;10.40;;
11100;SDS011;5604;50.722;7.078;2023-05-10T05:30:42;14.70;;;11.07;;
11100;SDS011;5604;50.722;7.078;2023-05-10T05:33:10;12.97;;;10.67;;
11100;SDS011;5604;50.722;7.078;2023-05-10T05:35:39;12.97;;;10.67;;
11100;SDS011;5604;50.722;7.078;2023-05-10T05:38:07;12.93;;;9.47;;
11100;SDS011;5604;50.722;7.078;2023-05-10T05:40:35;12.50;;;10.50;;
11100;SDS011;5604;50.722;7.078;2023-05-10T05:43:03;13.40;;;8.77;;
11100;SDS011;5604;50.722;7.078;2023-05-10T05:45:33;10.70;;;9.23;;
11100;SDS011;5604;50.722;7.078;2023-05-10T05:48:04;11.03;;;7.90;;
11100;SDS011;5604;50.722;7.078;2023-05-10T05:50:33;9.43;;;7.77;;
11100;SDS011;5604;50.722;7.078;2023-05-10T05:53:01;10.80;;;7.80;;
11100;SDS011;5604;50.722;7.078;2023-05-10T05:55:29;10.27;;;7.87;;
11100;SDS011;5604;50.722;7.078;2023-05-10T05:57:57;10.93;;;8.13;;
11100;SDS011;5604;50.722;7.078;2023-05-10T06:00:26;11.17;;;7.37;;
11100;SDS011;5604;50.722;7.078;2023-05-10T06:02:55;9.70;;;7.87;;
11100;SDS011;5604;50.722;7.078;2023-05-10T06:05:23;8.73;;;7.83;;
11100;SDS011;5604;50.722;7.078;2023-05-10T06:07:51;8.10;;;7.30;;
11100;SDS011;5604;50.722;7.078;2023-05-10T06:10:19;10.70;;;8.13;;
11100;SDS011;5604;50.722;7.078;2023-05-10T06:12:47;8.83;;;7.80;;
11100;SDS011;5604;50.722;7.078;2023-05-10T06:15:15;7.93;;;6.80;;
11100;SDS011;5604;50.722;7.078;2023-05-10T06:17:43;7.80;;;7.00;;
11100;SDS011;5604;50.722;7.078;2023-05-10T06:20:15;8.53;;;6.60;;
11100;SDS011;5604;50.722;7.078;2023-05-10T06:22:43;9.57;;;6.30;;
11100;SDS011;5604;50.722;7.078;2023-05-10T06:25:11;8.37;;;6.23;;
11100;SDS011;5604;50.722;7.078;2023-05-10T06:27:40;6.97;;;6.37;;
11100;SDS011;5604;50.722;7.078;2023-05-10T06:30:09;6.87;;;6.10;;
11100;SDS011;5604;50.722;7.078;2023-05-10T06:32:39;7.27;;;5.20;;
11100;SDS011;5604;50.722;7.078;2023-05-10T06:35:08;7.17;;;5.60;;
11100;SDS011;5604;50.722;7.078;2023-05-10T06:37:37;7.80;;;5.67;;
11100;SDS011;5604;50.722;7.078;2023-05-10T06:40:06;6.73;;;5.00;;
11100;SDS011;5604;50.722;7.078;2023-05-10T06:42:35;7.70;;;5.20;;
11100;SDS011;5604;50.722;7.078;2023-05-10T06:45:04;5.83;;;5.23;;
11100;SDS011;5604;50.722;7.078;2023-05-10T06:47:33;8.07;;;5.30;;
11100;SDS011;5604;50.722;7.078;2023-05-10T06:50:04;5.63;;;5.07;;
11100;SDS011;5604;50.722;7.078;2023-05-10T06:52:33;6.10;;;5.30;;
11100;SDS011;5604;50.722;7.078;2023-05-10T06:55:03;7.20;;;5.13;;
11100;SDS011;5604;50.722;7.078;2023-05-10T06:57:32;8.47;;;5.50;;
11100;SDS011;5604;50.722;7.078;2023-05-10T07:00:00;6.87;;;5.40;;
11100;SDS011;5604;50.722;7.078;2023-05-10T07:02:28;5.83;;;5.00;;
11100;SDS011;5604;50.722;7.078;2023-05-10T07:04:56;8.40;;;5.33;;
11100;SDS011;5604;50.722;7.078;2023-05-10T07:07:28;5.90;;;5.27;;
11100;SDS011;5604;50.722;7.078;2023-05-10T07:09:56;11.03;;;5.90;;
11100;SDS011;5604;50.722;7.078;2023-05-10T07:12:25;12.40;;;8.10;;
11100;SDS011;5604;50.722;7.078;2023-05-10T07:14:53;9.57;;;6.53;;
11100;SDS011;5604;50.722;7.078;2023-05-10T07:17:21;8.30;;;6.43;;
11100;SDS011;5604;50.722;7.078;2023-05-10T07:19:50;7.80;;;7.00;;
11100;SDS011;5604;50.722;7.078;2023-05-10T07:22:18;9.20;;;8.30;;
11100;SDS011;5604;50.722;7.078;2023-05-10T07:24:46;7.80;;;6.93;;
11100;SDS011;5604;50.722;7.078;2023-05-10T07:27:14;7.70;;;6.10;;
11100;SDS011;5604;50.722;7.078;2023-05-10T07:29:43;7.57;;;6.07;;
11100;SDS011;5604;50.722;7.078;2023-05-10T07:32:11;7.37;;;6.20;;
11100;SDS011;5604;50.722;7.078;2023-05-10T07:34:39;8.93;;;6.13;;
11100;SDS011;5604;50.722;7.078;2023-05-10T07:37:07;7.67;;;5.73;;
11100;SDS011;5604;50.722;7.078;2023-05-10T07:39:35;8.30;;;6.00;;
11100;SDS011;5604;50.722;7.078;2023-05-10T07:42:03;5.83;;;5.23;;
11100;SDS011;5604;50.722;7.078;2023-05-10T07:44:32;6.83;;;5.23;;
11100;SDS011;5604;50.722;7.078;2023-05-10T07:47:03;6.17;;;5.33;;
11100;SDS011;5604;50.722;7.078;2023-05-10T07:49:31;5.83;;;5.20;;
11100;SDS011;5604;50.722;7.078;2023-05-10T07:51:59;7.53;;;5.57;;
11100;SDS011;5604;50.722;7.078;2023-05-10T07:54:27;5.90;;;5.20;;
11100;SDS011;5604;50.722;7.078;2023-05-10T07:56:55;5.80;;;4.63;;
11100;SDS011;5604;50.722;7.078;2023-05-10T07:59:23;6.67;;;4.27;;
11100;SDS011;5604;50.722;7.078;2023-05-10T08:01:51;4.47;;;4.07;;
11100;SDS011;5604;50.722;7.078;2023-05-10T08:04:21;7.77;;;4.30;;
11100;SDS011;5604;50.722;7.078;2023-05-10T08:06:49;6.53;;;4.20;;
11100;SDS011;5604;50.722;7.078;2023-05-10T08:09:17;5.40;;;4.47;;
11100;SDS011;5604;50.722;7.078;2023-05-10T08:11:50;4.60;;;4.20;;
11100;SDS011;5604;50.722;7.078;2023-05-10T08:14:18;4.80;;;4.03;;
11100;SDS011;5604;50.722;7.078;2023-05-10T08:16:46;6.97;;;4.07;;
11100;SDS011;5604;50.722;7.078;2023-05-10T08:19:14;5.73;;;3.87;;
11100;SDS011;5604;50.722;7.078;2023-05-10T08:21:46;5.57;;;2.80;;
11100;SDS011;5604;50.722;7.078;2023-05-10T08:24:14;5.33;;;3.00;;
11100;SDS011;5604;50.722;7.078;2023-05-10T08:26:43;3.23;;;2.70;;
11100;SDS011;5604;50.722;7.078;2023-05-10T08:29:10;2.80;;;2.60;;
11100;SDS011;5604;50.722;7.078;2023-05-10T08:31:38;5.20;;;2.90;;
11100;SDS011;5604;50.722;7.078;2023-05-10T08:34:06;4.63;;;3.27;;
11100;SDS011;5604;50.722;7.078;2023-05-10T08:36:34;4.00;;;2.43;;
11100;SDS011;5604;50.722;7.078;2023-05-10T08:39:04;4.20;;;2.30;;
11100;SDS011;5604;50.722;7.078;2023-05-10T08:41:42;2.90;;;2.60;;
11100;SDS011;5604;50.722;7.078;2023-05-10T08:44:11;3.73;;;3.00;;
11100;SDS011;5604;50.722;7.078;2023-05-10T08:46:40;7.47;;;3.43;;
11100;SDS011;5604;50.722;7.078;2023-05-10T08:49:10;2.83;;;2.60;;
11100;SDS011;5604;50.722;7.078;2023-05-10T08:51:41;4.30;;;2.30;;
11100;SDS011;5604;50.722;7.078;2023-05-10T08:54:12;5.17;;;2.73;;
11100;SDS011;5604;50.722;7.078;2023-05-10T08:56:40;2.53;;;1.80;;
11100;SDS011;5604;50.722;7.078;2023-05-10T08:59:08;2.30;;;1.93;;
11100;SDS011;5604;50.722;7.078;2023-05-10T09:01:37;2.23;;;1.80;;
11100;SDS011;5604;50.722;7.078;2023-05-10T09:04:06;4.33;;;2.40;;
11100;SDS011;5604;50.722;7.078;2023-05-10T09:06:34;2.30;;;2.10;;
11100;SDS011;5604;50.722;7.078;2023-05-10T09:09:02;2.40;;;1.80;;
11100;SDS011;5604;50.722;7.078;2023-05-10T09:11:31;1.87;;;1.63;;
11100;SDS011;5604;50.722;7.078;2023-05-10T09:14:00;1.50;;;1.40;;
11100;SDS011;5604;50.722;7.078;2023-05-10T09:16:29;1.50;;;1.40;;
11100;SDS011;5604;50.722;7.078;2023-05-10T09:18:57;2.90;;;1.47;;
11100;SDS011;5604;50.722;7.078;2023-05-10T09:21:25;4.50;;;1.33;;
11100;SDS011;5604;50.722;7.078;2023-05-10T09:23:53;1.40;;;1.30;;
11100;SDS011;5604;50.722;7.078;2023-05-10T09:26:24;2.47;;;1.50;;
11100;SDS011;5604;50.722;7.078;2023-05-10T09:28:55;2.37;;;1.53;;
11100;SDS011;5604;50.722;7.078;2023-05-10T09:31:24;2.70;;;1.70;;
11100;SDS011;5604;50.722;7.078;2023-05-10T09:33:52;1.60;;;1.50;;
11100;SDS011;5604;50.722;7.078;2023-05-10T09:36:21;1.33;;;1.23;;
11100;SDS011;5604;50.722;7.078;2023-05-10T09:38:49;2.27;;;1.30;;
11100;SDS011;5604;50.722;7.078;2023-05-10T09:41:19;1.57;;;1.27;;
11100;SDS011;5604;50.722;7.078;2023-05-10T09:43:48;2.53;;;1.40;;
11100;SDS011;5604;50.722;7.078;2023-05-10T09:46:19;1.10;;;1.00;;
11100;SDS011;5604;50.722;7.078;2023-05-10T09:48:47;1.20;;;1.10;;
11100;SDS011;5604;50.722;7.078;2023-05-10T09:51:18;0.97;;;0.97;;
11100;SDS011;5604;50.722;7.078;2023-05-10T09:53:48;1.20;;;1.10;;
11100;SDS011;5604;50.722;7.078;2023-05-10T09:59:03;1.00;;;1.00;;
11100;SDS011;5604;50.722;7.078;2023-05-10T10:01:34;1.13;;;1.10;;
11100;SDS011;5604;50.722;7.078;2023-05-10T10:04:03;1.47;;;1.10;;
11100;SDS011;5604;50.722;7.078;2023-05-10T10:06:35;3.53;;;1.00;;
11100;SDS011;5604;50.722;7.078;2023-05-10T10:09:05;2.27;;;1.20;;
11100;SDS011;5604;50.722;7.078;2023-05-10T10:11:34;1.40;;;1.30;;
11100;SDS011;5604;50.722;7.078;2023-05-10T10:14:03;1.70;;;1.60;;
11100;SDS011;5604;50.722;7.078;2023-05-10T10:16:31;1.83;;;1.73;;
11100;SDS011;5604;50.722;7.078;2023-05-10T10:19:01;2.60;;;2.40;;
11100;SDS011;5604;50.722;7.078;2023-05-10T10:21:30;2.90;;;2.60;;
11100;SDS011;5604;50.722;7.078;2023-05-10T10:23:59;4.50;;;3.50;;
11100;SDS011;5604;50.722;7.078;2023-05-10T10:26:27;5.40;;;3.80;;
11100;SDS011;5604;50.722;7.078;2023-05-10T10:29:03;4.20;;;3.80;;
11100;SDS011;5604;50.722;7.078;2023-05-10T10:31:40;3.47;;;2.80;;
11100;SDS011;5604;50.722;7.078;2023-05-10T10:34:17;8.13;;;2.53;;
11100;SDS011;5604;50.722;7.078;2023-05-10T10:36:52;4.93;;;3.50;;
11100;SDS011;5604;50.722;7.078;2023-05-10T10:39:27;4.37;;;3.70;;
11100;SDS011;5604;50.722;7.078;2023-05-10T10:42:05;4.00;;;3.60;;
11100;SDS011;5604;50.722;7.078;2023-05-10T10:44:38;2.67;;;2.47;;
11100;SDS011;5604;50.722;7.078;2023-05-10T10:47:21;4.23;;;2.90;;
11100;SDS011;5604;50.722;7.078;2023-05-10T10:50:03;4.60;;;2.40;;
11100;SDS011;5604;50.722;7.078;2023-05-10T10:52:33;2.43;;;2.20;;
11100;SDS011;5604;50.722;7.078;2023-05-10T10:55:02;3.07;;;2.50;;
11100;SDS011;5604;50.722;7.078;2023-05-10T10:57:33;1.50;;;1.40;;
11100;SDS011;5604;50.722;7.078;2023-05-10T11:00:19;1.50;;;1.40;;
11100;SDS011;5604;50.722;7.078;2023-05-10T11:02:51;1.73;;;1.17;;
11100;SDS011;5604;50.722;7.078;2023-05-10T11:08:11;0.87;;;0.87;;
11100;SDS011;5604;50.722;7.078;2023-05-10T11:10:49;3.20;;;0.70;;
11100;SDS011;5604;50.722;7.078;2023-05-10T11:13:30;1.40;;;0.63;;
11100;SDS011;5604;50.722;7.078;2023-05-10T11:16:09;2.33;;;0.50;;
11100;SDS011;5604;50.722;7.078;2023-05-10T11:18:56;1.33;;;0.63;;
11100;SDS011;5604;50.722;7.078;2023-05-10T11:21:26;0.60;;;0.50;;
11100;SDS011;5604;50.722;7.078;2023-05-10T11:23:54;0.53;;;0.53;;
11100;SDS011;5604;50.722;7.078;2023-05-10T11:26:24;0.83;;;0.60;;
11100;SDS011;5604;50.722;7.078;2023-05-10T11:28:53;1.17;;;0.87;;
11100;SDS011;5604;50.722;7.078;2023-05-10T11:31:22;1.00;;;1.00;;
11100;SDS011;5604;50.722;7.078;2023-05-10T11:33:54;1.63;;;1.07;;
11100;SDS011;5604;50.722;7.078;2023-05-10T11:36:24;1.33;;;1.00;;
11100;SDS011;5604;50.722;7.078;2023-05-10T11:38:53;0.83;;;0.83;;
11100;SDS011;5604;50.722;7.078;2023-05-10T11:41:23;1.03;;;0.83;;
11100;SDS011;5604;50.722;7.078;2023-05-10T11:43:52;1.00;;;0.90;;
11100;SDS011;5604;50.722;7.078;2023-05-10T11:46:22;0.70;;;0.70;;
11100;SDS011;5604;50.722;7.078;2023-05-10T11:48:54;2.50;;;1.07;;
11100;SDS011;5604;50.722;7.078;2023-05-10T11:51:27;1.03;;;0.80;;
11100;SDS011;5604;50.722;7.078;2023-05-10T11:53:55;0.80;;;0.80;;
11100;SDS011;5604;50.722;7.078;2023-05-10T11:56:24;2.20;;;0.80;;
11100;SDS011;5604;50.722;7.078;2023-05-10T11:58:53;0.60;;;0.60;;
11100;SDS011;5604;50.722;7.078;2023-05-10T12:01:22;0.80;;;0.80;;
11100;SDS011;5604;50.722;7.078;2023-05-10T12:03:51;0.77;;;0.77;;
11100;SDS011;5604;50.722;7.078;2023-05-10T12:06:22;1.00;;;1.00;;
11100;SDS011;5604;50.722;7.078;2023-05-10T12:08:53;0.80;;;0.80;;
11100;SDS011;5604;50.722;7.078;2023-05-10T12:11:24;1.90;;;1.10;;
11100;SDS011;5604;50.722;7.078;2023-05-10T12:13:52;1.23;;;1.23;;
11100;SDS011;5604;50.722;7.078;2023-05-10T12:16:21;1.17;;;1.17;;
11100;SDS011;5604;50.722;7.078;2023-05-10T12:18:50;1.60;;;1.50;;
11100;SDS011;5604;50.722;7.078;2023-05-10T12:21:20;1.40;;;1.30;;
11100;SDS011;5604;50.722;7.078;2023-05-10T12:23:50;2.47;;;1.60;;
11100;SDS011;5604;50.722;7.078;2023-05-10T12:26:19;4.53;;;1.00;;
11100;SDS011;5604;50.722;7.078;2023-05-10T12:28:49;0.90;;;0.80;;
11100;SDS011;5604;50.722;7.078;2023-05-10T12:31:17;1.17;;;1.07;;
11100;SDS011;5604;50.722;7.078;2023-05-10T12:33:45;1.33;;;1.20;;
11100;SDS011;5604;50.722;7.078;2023-05-10T12:36:16;1.17;;;1.00;;
11100;SDS011;5604;50.722;7.078;2023-05-10T12:38:44;1.03;;;0.87;;
11100;SDS011;5604;50.722;7.078;2023-05-10T12:41:16;0.60;;;0.60;;
11100;SDS011;5604;50.722;7.078;2023-05-10T12:43:45;1.10;;;0.93;;
11100;SDS011;5604;50.722;7.078;2023-05-10T12:46:16;1.20;;;1.10;;
11100;SDS011;5604;50.722;7.078;2023-05-10T12:48:45;1.30;;;1.20;;
11100;SDS011;5604;50.722;7.078;2023-05-10T12:51:25;1.10;;;1.00;;
11100;SDS011;5604;50.722;7.078;2023-05-10T12:53:53;0.90;;;0.90;;
11100;SDS011;5604;50.722;7.078;2023-05-10T12:56:23;1.17;;;1.03;;
11100;SDS011;5604;50.722;7.078;2023-05-10T12:58:51;1.33;;;0.93;;
11100;SDS011;5604;50.722;7.078;2023-05-10T13:01:19;0.90;;;0.90;;
11100;SDS011;5604;50.722;7.078;2023-05-10T13:03:47;1.50;;;0.80;;
11100;SDS011;5604;50.722;7.078;2023-05-10T13:06:15;0.70;;;0.70;;
11100;SDS011;5604;50.722;7.078;2023-05-10T13:08:43;1.43;;;1.00;;
11100;SDS011;5604;50.722;7.078;2023-05-10T13:11:11;2.13;;;1.03;;
11100;SDS011;5604;50.722;7.078;2023-05-10T13:13:44;0.77;;;0.77;;
11100;SDS011;5604;50.722;7.078;2023-05-10T13:16:12;0.70;;;0.70;;
11100;SDS011;5604;50.722;7.078;2023-05-10T13:18:40;1.17;;;0.90;;
11100;SDS011;5604;50.722;7.078;2023-05-10T13:21:08;2.10;;;1.13;;
11100;SDS011;5604;50.722;7.078;2023-05-10T13:23:36;0.70;;;0.70;;
11100;SDS011;5604;50.722;7.078;2023-05-10T13:26:04;1.80;;;0.70;;
11100;SDS011;5604;50.722;7.078;2023-05-10T13:28:32;1.43;;;0.80;;
11100;SDS011;5604;50.722;7.078;2023-05-10T13:31:02;0.50;;;0.50;;
11100;SDS011;5604;50.722;7.078;2023-05-10T13:33:30;2.13;;;0.50;;
11100;SDS011;5604;50.722;7.078;2023-05-10T13:35:58;0.40;;;0.40;;
11100;SDS011;5604;50.722;7.078;2023-05-10T13:38:26;0.70;;;0.60;;
11100;SDS011;5604;50.722;7.078;2023-05-10T13:40:54;0.70;;;0.70;;
11100;SDS011;5604;50.722;7.078;2023-05-10T13:43:23;0.67;;;0.67;;
11100;SDS011;5604;50.722;7.078;2023-05-10T13:45:51;0.80;;;0.80;;
11100;SDS011;5604;50.722;7.078;2023-05-10T13:48:20;1.20;;;1.10;;
11100;SDS011;5604;50.722;7.078;2023-05-10T13:50:48;1.37;;;1.20;;
11100;SDS011;5604;50.722;7.078;2023-05-10T13:53:16;1.07;;;1.00;;
11100;SDS011;5604;50.722;7.078;2023-05-10T13:55:44;1.77;;;1.40;;
11100;SDS011;5604;50.722;7.078;2023-05-10T13:58:12;1.10;;;1.10;;
11100;SDS011;5604;50.722;7.078;2023-05-10T14:00:41;1.20;;;1.10;;
11100;SDS011;5604;50.722;7.078;2023-05-10T14:03:09;1.10;;;1.10;;
11100;SDS011;5604;50.722;7.078;2023-05-10T14:05:39;1.33;;;1.20;;
11100;SDS011;5604;50.722;7.078;2023-05-10T14:08:07;1.20;;;1.17;;
11100;SDS011;5604;50.722;7.078;2023-05-10T14:10:36;1.70;;;1.10;;
11100;SDS011;5604;50.722;7.078;2023-05-10T14:13:04;1.77;;;1.47;;
11100;SDS011;5604;50.722;7.078;2023-05-10T14:15:32;1.43;;;1.20;;
11100;SDS011;5604;50.722;7.078;2023-05-10T14:18:00;1.47;;;1.37;;
11100;SDS011;5604;50.722;7.078;2023-05-10T14:20:29;1.63;;;1.10;;
11100;SDS011;5604;50.722;7.078;2023-05-10T14:22:59;1.53;;;1.40;;
11100;SDS011;5604;50.722;7.078;2023-05-10T14:25:28;1.87;;;1.30;;
11100;SDS011;5604;50.722;7.078;2023-05-10T14:27:57;2.07;;;1.07;;
11100;SDS011;5604;50.722;7.078;2023-05-10T14:30:25;1.73;;;1.63;;
11100;SDS011;5604;50.722;7.078;2023-05-10T14:32:53;1.33;;;1.20;;
11100;SDS011;5604;50.722;7.078;2023-05-10T14:35:22;1.47;;;1.33;;
11100;SDS011;5604;50.722;7.078;2023-05-10T14:37:50;2.70;;;1.90;;
11100;SDS011;5604;50.722;7.078;2023-05-10T14:40:19;1.63;;;1.53;;
11100;SDS011;5604;50.722;7.078;2023-05-10T14:42:48;1.60;;;1.50;;
11100;SDS011;5604;50.722;7.078;2023-05-10T14:45:16;2.17;;;1.80;;
11100;SDS011;5604;50.722;7.078;2023-05-10T14:47:44;3.93;;;2.30;;
11100;SDS011;5604;50.722;7.078;2023-05-10T14:50:12;7.60;;;2.30;;
11100;SDS011;5604;50.722;7.078;2023-05-10T14:53:00;4.07;;;2.20;;
11100;SDS011;5604;50.722;7.078;2023-05-10T14:55:30;6.40;;;3.10;;
11100;SDS011;5604;50.722;7.078;2023-05-10T14:57:59;5.57;;;3.00;;
11100;SDS011;5604;50.722;7.078;2023-05-10T15:00:27;3.70;;;2.10;;
11100;SDS011;5604;50.722;7.078;2023-05-10T15:02:56;3.30;;;2.17;;
11100;SDS011;5604;50.722;7.078;2023-05-10T15:05:25;2.30;;;2.10;;
11100;SDS011;5604;50.722;7.078;2023-05-10T15:07:53;5.03;;;2.10;;
11100;SDS011;5604;50.722;7.078;2023-05-10T15:10:22;3.80;;;1.77;;
11100;SDS011;5604;50.722;7.078;2023-05-10T15:12:51;2.33;;;2.10;;
11100;SDS011;5604;50.722;7.078;2023-05-10T15:15:19;3.40;;;1.83;;
11100;SDS011;5604;50.722;7.078;2023-05-10T15:17:47;5.90;;;2.13;;
11100;SDS011;5604;50.722;7.078;2023-05-10T15:20:16;4.50;;;2.00;;